Wednesday, August 15, 2018, 12:51 AM EDT
Back to Local

KOXC, Oxford, Waterbury-oxford Airport

Location: Oxford, CT, United States Lat: 41.483
Local Time: 12:51 AM EDT ( 4:51 GMT) Lon: -73.133
Time Zone: US/Eastern Elev: 725 ft

Show me the last for .
Show Decoded

2018-08-14 23:51 METAR KOXC 150351Z AUTO VRB03KT 7SM BKN005 OVC010 20/20 A2986 RMK AO2 CIG
                 003V007 SLP119 T02000200 =
2018-08-14 23:41 METAR KOXC 150341Z AUTO 23003KT 6SM BR BKN005 BKN120 20/20 A2986 RMK AO2 CIG
                 003V007 =
2018-08-14 23:29 METAR KOXC 150329Z AUTO 21003KT 6SM BR BKN003 BKN120 20/20 A2986 RMK AO2 CIG
                 003V008 =
2018-08-14 22:51 METAR KOXC 150251Z AUTO 21003KT 10SM BKN005 21/20 A2986 RMK AO2 SLP119 T02060200
                 53000 =
2018-08-14 22:27 METAR KOXC 150227Z AUTO 21003KT 10SM BKN005 21/20 A2987 RMK AO2 =
2018-08-14 22:18 METAR KOXC 150218Z AUTO 22003KT 10SM SCT005 21/20 A2987 RMK AO2 =
2018-08-14 21:51 METAR KOXC 150151Z AUTO 23003KT 10SM CLR 21/19 A2987 RMK AO2 SLP121 T02060194 =
2018-08-14 20:51 METAR KOXC 150051Z 19006KT 10SM FEW120 21/19 A2986 RMK AO2 LTG DSNT NE SLP117
                 T02110194 =
2018-08-14 19:51 METAR KOXC 142351Z 20006KT 10SM FEW028 BKN110 22/20 A2986 RMK AO2 LTG DSNT NE
                 AND SE TSE00 SLP120 60000 T02220200 10278 20222 53009 =
2018-08-14 19:00 METAR KOXC 142300Z 19005KT 10SM SCT022 BKN047 23/21 A2983 RMK AO2 LTG DSNT N AND
                 NE TSE00 =
2018-08-14 18:51 METAR KOXC 142251Z 19006KT 10SM VCTS BKN022 BKN047 OVC080 23/21 A2984 RMK AO2
                 LTG DSNT NE RAB03E38 SLP112 TS MVD E P0000 T02330206 =
2018-08-14 17:51 METAR KOXC 142151Z 19007KT 10SM TS SCT033 BKN055 24/20 A2984 RMK AO2 LTG DSNT
                 W-N TSB23 SLP112 TS NW MOV E LTGCG T02440200 =
2018-08-14 17:27 METAR KOXC 142127Z 18007KT 10SM VCTS FEW035 BKN049 25/20 A2985 RMK AO2 LTG DSNT
                 N AND W TSB23 TS NW MOV E =
2018-08-14 16:51 METAR KOXC 142051Z 17008KT 10SM FEW039 SCT049 26/19 A2984 RMK AO2 LTG DSNT SW-N
                 SLP110 T02610194 56011 =
2018-08-14 15:51 METAR KOXC 141951Z 17009KT 10SM BKN038 26/19 A2984 RMK AO2 LTG DSNT W TSB11E46
                 SLP112 TS MVD NE T02610194 =
2018-08-14 15:13 METAR KOXC 141913Z 18011KT 10SM TS BKN034 27/20 A2985 RMK AO2 TSB11 TS NW MOV E
                 LTGCG =
2018-08-14 14:51 METAR KOXC 141851Z 19009KT 10SM BKN034 BKN045 27/19 A2986 RMK AO2 SLP115
                 T02670194 =
2018-08-14 13:51 METAR KOXC 141751Z 20008KT 160V240 10SM SCT025 27/19 A2987 RMK AO2 SLP120
                 T02670194 10272 20217 58014 =
2018-08-14 12:51 METAR KOXC 141651Z 21008KT 10SM BKN025 27/21 A2989 RMK AO2 SLP126 T02670206 =
2018-08-14 11:51 METAR KOXC 141551Z 20006KT 10SM BKN023 BKN038 26/21 A2990 RMK AO2 LTG DSNT SW
                 SLP131 T02560211 =
2018-08-14 10:58 METAR KOXC 141458Z 19012KT 10SM BKN018 26/21 A2991 RMK AO2 LTG DSNT NE =
2018-08-14 10:51 METAR KOXC 141451Z 20007KT 10SM BKN012 BKN048 25/21 A2991 RMK AO2 LTG DSNT NE
                 SLP135 T02500211 56003 =
2018-08-14 10:37 METAR KOXC 141437Z 17009KT 10SM BKN012 BKN048 26/22 A2991 RMK AO2 =
2018-08-14 09:51 METAR KOXC 141351Z 19007KT 10SM BKN009 BKN018 23/22 A2991 RMK AO2 CIG 007V011
                 SLP136 T02330222 =
2018-08-14 09:11 METAR KOXC 141311Z 18006KT 3SM BR BKN004 OVC006 23/22 A2992 RMK AO2 =
2018-08-14 08:51 METAR KOXC 141251Z 18004KT 2SM BR OVC002 22/22 A2991 RMK AO2 SLP137 T02220222 =
2018-08-14 07:51 METAR KOXC 141151Z 16005KT 3/4SM BR OVC002 22/22 A2992 RMK AO2 SLP139 70099
                 T02170217 10217 20206 51005 =
2018-08-14 06:51 METAR KOXC 141051Z 16004KT 1/2SM FG OVC001 21/21 A2992 RMK AO2 SLP140 T02110211
                 =
2018-08-14 05:51 METAR KOXC 140951Z AUTO 14003KT 1/4SM FG OVC001 21/21 A2991 RMK AO2 SLP137
                 T02060206 =
2018-08-14 05:39 METAR KOXC 140939Z AUTO 18003KT 1/2SM FG OVC003 21/21 A2991 RMK AO2 =
2018-08-14 05:31 METAR KOXC 140931Z AUTO 18003KT 1 3/4SM BR OVC003 21/21 A2991 RMK AO2 CIG
                 001V006 =
2018-08-14 05:25 METAR KOXC 140925Z AUTO 17004KT 3SM BR OVC003 21/21 A2991 RMK AO2 =
2018-08-14 04:51 METAR KOXC 140851Z AUTO 19003KT 3SM BR OVC005 21/21 A2990 RMK AO2 SLP135
                 T02060206 56004 =
2018-08-14 04:32 METAR KOXC 140832Z AUTO 14003KT 3SM BR OVC005 21/21 A2990 RMK AO2 =
2018-08-14 03:51 METAR KOXC 140751Z AUTO 00000KT 2SM BR OVC003 21/21 A2990 RMK AO2 VIS 1 1/4V3
                 SLP135 T02060206 =
2018-08-14 03:44 METAR KOXC 140744Z AUTO 00000KT 3SM BR OVC003 21/21 A2991 RMK AO2 =
2018-08-14 03:39 METAR KOXC 140739Z AUTO 00000KT 1 3/4SM BR OVC003 21/21 A2990 RMK AO2 =
2018-08-14 03:32 METAR KOXC 140732Z AUTO 00000KT 2SM BR OVC003 21/21 A2991 RMK AO2 =
2018-08-14 03:19 METAR KOXC 140719Z AUTO 00000KT 1SM BR BKN003 21/21 A2991 RMK AO2 CIG 001V006 =
2018-08-14 03:11 METAR KOXC 140711Z AUTO 00000KT 1/4SM FG BKN003 BKN007 21/21 A2991 RMK AO2 CIG
                 002V006 =
2018-08-14 02:59 METAR KOXC 140659Z AUTO 00000KT 1/2SM FG BKN005 21/21 A2992 RMK AO2 CIG 002V007
                 =
2018-08-14 02:55 METAR KOXC 140655Z AUTO 00000KT 1 1/2SM BR SCT003 BKN007 21/21 A2992 RMK AO2 =
2018-08-14 02:51 METAR KOXC 140651Z AUTO 00000KT 3SM BR BKN003 BKN007 21/21 A2991 RMK AO2 SLP138
                 T02110211 =
2018-08-14 02:47 METAR KOXC 140647Z AUTO 00000KT 3SM BR BKN003 OVC008 21/21 A2992 RMK AO2 =
2018-08-14 02:36 METAR KOXC 140636Z AUTO 00000KT 2 1/2SM BR BKN003 OVC008 21/21 A2992 RMK AO2 CIG
                 001V007 =
2018-08-14 02:27 METAR KOXC 140627Z AUTO 00000KT 3SM BR BKN005 OVC008 21/21 A2993 RMK AO2 CIG
                 001V007 =
2018-08-14 02:15 METAR KOXC 140615Z AUTO 00000KT 2 1/2SM BR OVC005 21/21 A2993 RMK AO2 CIG
                 002V008 =
2018-08-14 01:51 METAR KOXC 140551Z AUTO 22003KT 4SM BR OVC002 21/21 A2993 RMK AO2 CIG 001V005
                 SLP144 60000 T02110211 10217 20211 57002 =
2018-08-14 01:44 METAR KOXC 140544Z AUTO 19003KT 3SM BR OVC002 21/21 A2993 RMK AO2 CIG 001V006 =
2018-08-14 01:23 METAR KOXC 140523Z AUTO 18005KT 2SM BR BKN004 21/21 A2993 RMK AO2 VIS 3/4V4 =
2018-08-14 01:15 METAR KOXC 140515Z AUTO 19003KT 4SM BR BKN004 21/21 A2993 RMK AO2 =

Support USWX by starting your Amazon purchase here.